Time;durP1;ratioP1;P1;durP2;ratioP2;P2;SDS_P1;SDS_P2;PMS_P1;PMS_P2;Temp;Humidity;BMP_temperature;BMP_pressure;BME280_temperature;BME280_humidity;BME280_pressure;Samples;Min_cycle;Max_cycle;Signal;HPM_P1;HPM_P2
2021/01/21 00:00:25;;;;;;;7.87;4.20;;;9.10;1.00;;;;;;5109957;27;20273;-59
2021/01/21 00:02:51;;;;;;;10.03;3.87;;;9.10;1.00;;;;;;5112043;28;20178;-59
2021/01/21 00:05:17;;;;;;;5.50;4.23;;;9.10;1.00;;;;;;5111532;28;20182;-59
2021/01/21 00:07:42;;;;;;;8.90;5.20;;;9.00;1.00;;;;;;5112129;27;20272;-58
2021/01/21 00:10:08;;;;;;;6.73;4.43;;;8.90;1.00;;;;;;5110526;28;20193;-58
2021/01/21 00:12:34;;;;;;;5.20;4.70;;;8.80;1.00;;;;;;5108573;27;20186;-58
2021/01/21 00:14:59;;;;;;;5.30;4.80;;;8.70;1.00;;;;;;5111533;28;20499;-57
2021/01/21 00:17:25;;;;;;;5.53;4.40;;;8.60;1.00;;;;;;5110785;28;20177;-58
2021/01/21 00:19:51;;;;;;;10.30;5.70;;;8.50;1.00;;;;;;5110367;28;20203;-60
2021/01/21 00:22:16;;;;;;;6.07;5.20;;;8.40;1.00;;;;;;5110108;28;20182;-58
2021/01/21 00:24:42;;;;;;;9.13;6.20;;;8.30;1.00;;;;;;5111308;28;20547;-58
2021/01/21 00:27:07;;;;;;;11.40;6.30;;;8.20;1.00;;;;;;5108803;28;20186;-57
2021/01/21 00:29:33;;;;;;;12.23;6.43;;;8.30;1.00;;;;;;5111320;28;20247;-58
2021/01/21 00:31:59;;;;;;;8.83;6.30;;;8.20;1.00;;;;;;5110884;28;20695;-58
2021/01/21 00:34:24;;;;;;;9.17;6.83;;;8.20;1.00;;;;;;5111370;27;20290;-59
2021/01/21 00:36:51;;;;;;;9.67;6.90;;;8.20;1.00;;;;;;5111314;28;20488;-59
2021/01/21 00:39:16;;;;;;;7.50;5.90;;;8.10;1.00;;;;;;5112247;28;20596;-59
2021/01/21 00:41:42;;;;;;;9.63;6.60;;;8.10;1.00;;;;;;5108545;28;20475;-58
2021/01/21 00:44:08;;;;;;;12.47;7.37;;;8.00;1.00;;;;;;5110963;28;20221;-59
2021/01/21 00:46:33;;;;;;;9.60;7.27;;;8.10;1.00;;;;;;5111610;28;20235;-57
2021/01/21 00:48:59;;;;;;;9.87;6.60;;;8.10;1.00;;;;;;5108703;28;20181;-58
2021/01/21 00:51:26;;;;;;;10.20;8.50;;;8.10;1.00;;;;;;5111613;28;20177;-58
2021/01/21 00:53:52;;;;;;;10.80;8.17;;;8.10;1.00;;;;;;5110859;28;20202;-57
2021/01/21 00:56:17;;;;;;;10.43;7.40;;;8.10;1.00;;;;;;5110235;28;20498;-57
2021/01/21 00:58:43;;;;;;;10.87;7.77;;;8.00;1.00;;;;;;5106926;28;20602;-59
2021/01/21 01:01:09;;;;;;;12.70;7.73;;;8.00;1.00;;;;;;5107195;28;20261;-57
2021/01/21 01:03:34;;;;;;;11.90;8.83;;;8.00;1.00;;;;;;5110024;28;20182;-58
2021/01/21 01:06:04;;;;;;;11.80;8.40;;;7.90;1.00;;;;;;5109962;28;20272;-59
2021/01/21 01:08:33;;;;;;;13.60;9.20;;;8.00;1.00;;;;;;5110734;28;20227;-57
2021/01/21 01:11:00;;;;;;;10.63;7.50;;;7.90;1.00;;;;;;5109139;28;20459;-57
2021/01/21 01:13:25;;;;;;;17.03;8.67;;;7.80;1.00;;;;;;5104058;28;20532;-58
2021/01/21 01:15:51;;;;;;;13.87;8.93;;;7.80;1.00;;;;;;5109405;28;20432;-57
2021/01/21 01:18:17;;;;;;;10.20;7.90;;;7.70;1.00;;;;;;5107594;28;20204;-58
2021/01/21 01:20:42;;;;;;;11.13;8.27;;;7.70;1.00;;;;;;5110878;28;20178;-58
2021/01/21 01:23:08;;;;;;;10.63;8.07;;;7.60;1.00;;;;;;5108857;28;20178;-56
2021/01/21 01:25:35;;;;;;;11.03;8.63;;;7.50;1.00;;;;;;5107951;28;20189;-57
2021/01/21 01:28:01;;;;;;;13.30;9.20;;;7.50;1.00;;;;;;5108133;28;20701;-57
2021/01/21 01:30:27;;;;;;;15.10;9.33;;;7.40;1.00;;;;;;5109191;28;20572;-57
2021/01/21 01:32:52;;;;;;;12.97;7.90;;;7.40;1.00;;;;;;5112403;27;20580;-57
2021/01/21 01:35:18;;;;;;;11.43;8.30;;;7.40;1.00;;;;;;5114876;28;20185;-58
2021/01/21 01:37:44;;;;;;;12.37;7.83;;;7.50;1.00;;;;;;5112772;27;20551;-57
2021/01/21 01:40:12;;;;;;;11.33;8.27;;;7.50;1.00;;;;;;5112112;27;20439;-58
2021/01/21 01:42:39;;;;;;;12.23;7.83;;;7.50;1.00;;;;;;5115237;27;20172;-58
2021/01/21 01:45:07;;;;;;;11.20;8.30;;;7.50;1.00;;;;;;5114660;28;20585;-58
2021/01/21 01:47:33;;;;;;;13.00;9.00;;;7.50;1.00;;;;;;5115129;28;20789;-58
2021/01/21 01:49:59;;;;;;;12.13;8.83;;;7.50;1.00;;;;;;5114761;27;20933;-57
2021/01/21 01:52:29;;;;;;;13.50;9.00;;;7.50;1.00;;;;;;5113894;28;20492;-58
2021/01/21 01:54:54;;;;;;;10.67;8.80;;;7.50;1.00;;;;;;5114466;27;20526;-59
2021/01/21 01:57:22;;;;;;;13.10;9.70;;;7.40;1.00;;;;;;5113669;28;20530;-58
2021/01/21 01:59:50;;;;;;;13.97;9.27;;;7.40;1.00;;;;;;5114957;28;20505;-59
2021/01/21 02:02:16;;;;;;;10.97;8.40;;;7.40;1.00;;;;;;5111931;28;20440;-57
2021/01/21 02:04:42;;;;;;;13.47;10.00;;;7.40;1.00;;;;;;5113462;28;20575;-58
2021/01/21 02:07:07;;;;;;;13.90;9.77;;;7.30;1.00;;;;;;5114091;28;20190;-58
2021/01/21 02:09:34;;;;;;;14.17;9.50;;;7.20;1.00;;;;;;5112748;28;20186;-58
2021/01/21 02:12:28;;;;;;;10.60;8.73;;;7.20;1.00;;;;;;5113545;28;20190;-57
2021/01/21 02:15:21;;;;;;;13.07;9.33;;;7.10;1.00;;;;;;5112509;28;20886;-58
2021/01/21 02:18:21;;;;;;;13.67;9.50;;;7.20;1.00;;;;;;5114639;28;20852;-57
2021/01/21 02:20:46;;;;;;;10.63;7.83;;;7.10;1.00;;;;;;5114013;28;20779;-57
2021/01/21 02:23:54;;;;;;;11.60;8.50;;;7.10;1.00;;;;;;5114270;28;20442;-58
2021/01/21 02:26:49;;;;;;;13.17;9.53;;;7.00;1.00;;;;;;5114302;28;20516;-57
2021/01/21 02:29:23;;;;;;;14.70;9.80;;;7.00;1.00;;;;;;5107789;27;20483;-58
2021/01/21 02:32:15;;;;;;;12.10;8.70;;;7.10;1.00;;;;;;5108789;28;21002;-58
2021/01/21 02:35:05;;;;;;;12.10;8.47;;;7.10;1.00;;;;;;5130428;27;21641;-58
2021/01/21 02:37:34;;;;;;;12.23;9.13;;;7.10;1.00;;;;;;5113286;28;20442;-58
2021/01/21 02:40:01;;;;;;;11.10;8.60;;;7.20;1.00;;;;;;5113390;28;20440;-58
2021/01/21 02:42:27;;;;;;;12.87;8.63;;;7.20;1.00;;;;;;5110883;28;20443;-58
2021/01/21 02:44:53;;;;;;;13.33;8.40;;;7.20;1.00;;;;;;5108728;27;20948;-58
2021/01/21 02:47:21;;;;;;;13.57;8.23;;;7.20;1.00;;;;;;5113071;28;20443;-58
2021/01/21 02:49:48;;;;;;;10.57;8.00;;;7.20;1.00;;;;;;5110686;28;20196;-58
2021/01/21 02:52:47;;;;;;;9.13;8.00;;;7.30;1.00;;;;;;5113972;27;20476;-59
2021/01/21 02:55:36;;;;;;;12.83;8.17;;;7.30;1.00;;;;;;5112495;28;20499;-58
2021/01/21 02:58:20;;;;;;;12.10;8.57;;;7.40;1.00;;;;;;5108170;28;21011;-59
2021/01/21 03:00:48;;;;;;;11.30;8.13;;;7.40;1.00;;;;;;5113545;27;20785;-58
2021/01/21 03:03:16;;;;;;;12.33;8.50;;;7.50;1.00;;;;;;5108555;27;20444;-57
2021/01/21 03:05:43;;;;;;;14.93;9.50;;;7.40;1.00;;;;;;5111799;28;20451;-58
2021/01/21 03:08:10;;;;;;;10.90;9.13;;;7.50;1.00;;;;;;5112472;27;20496;-58
2021/01/21 03:10:36;;;;;;;14.10;9.07;;;7.60;1.00;;;;;;5112595;28;20443;-58
2021/01/21 03:13:01;;;;;;;11.70;9.23;;;7.60;1.00;;;;;;5113535;28;20600;-58
2021/01/21 03:15:27;;;;;;;12.13;9.90;;;7.60;1.00;;;;;;5112684;28;20182;-57
2021/01/21 03:17:54;;;;;;;16.87;10.20;;;7.60;1.00;;;;;;5112947;28;20266;-58
2021/01/21 03:20:19;;;;;;;11.30;8.90;;;7.50;1.00;;;;;;5110965;28;20432;-58
2021/01/21 03:22:45;;;;;;;12.50;8.63;;;7.50;1.00;;;;;;5113434;28;20977;-57
2021/01/21 03:25:12;;;;;;;12.33;8.53;;;7.50;1.00;;;;;;5110840;28;20178;-58
2021/01/21 03:27:38;;;;;;;12.03;8.63;;;7.50;1.00;;;;;;5112324;28;20653;-58
2021/01/21 03:30:12;;;;;;;14.50;10.10;;;7.50;1.00;;;;;;5107506;28;20438;-58
2021/01/21 03:32:38;;;;;;;12.10;9.07;;;7.50;1.00;;;;;;5107168;28;21017;-57
2021/01/21 03:35:05;;;;;;;10.83;8.50;;;7.50;1.00;;;;;;5106753;28;20444;-58
2021/01/21 03:37:30;;;;;;;13.80;10.07;;;7.50;1.00;;;;;;5108743;28;20524;-57
2021/01/21 03:39:56;;;;;;;12.00;9.90;;;7.40;1.00;;;;;;5110500;28;20477;-57
2021/01/21 03:42:21;;;;;;;13.47;10.43;;;7.50;1.00;;;;;;5112839;28;20186;-58
2021/01/21 03:44:47;;;;;;;12.17;9.93;;;7.50;1.00;;;;;;5111558;28;20265;-57
2021/01/21 03:47:13;;;;;;;10.63;8.97;;;7.50;1.00;;;;;;5112842;28;20198;-57
2021/01/21 03:49:38;;;;;;;9.57;8.50;;;7.50;1.00;;;;;;5112273;28;20276;-58
2021/01/21 03:52:04;;;;;;;13.10;9.57;;;7.50;1.00;;;;;;5111280;28;20618;-58
2021/01/21 03:54:30;;;;;;;9.90;8.50;;;7.50;1.00;;;;;;5106771;27;20213;-57
2021/01/21 03:56:55;;;;;;;11.70;9.33;;;7.50;1.00;;;;;;5111094;28;20257;-58
2021/01/21 03:59:21;;;;;;;9.60;8.60;;;7.50;1.00;;;;;;5110994;28;20213;-57
2021/01/21 04:01:47;;;;;;;13.23;10.47;;;7.40;1.00;;;;;;5112225;28;20182;-58
2021/01/21 04:04:13;;;;;;;13.13;9.83;;;7.40;1.00;;;;;;5111775;27;20190;-57
2021/01/21 04:06:39;;;;;;;13.80;10.40;;;7.30;1.00;;;;;;5112420;28;20428;-57
2021/01/21 04:09:05;;;;;;;12.30;10.10;;;7.20;1.00;;;;;;5110003;28;20447;-58
2021/01/21 04:11:31;;;;;;;12.90;9.40;;;7.10;1.00;;;;;;5111018;28;20182;-59
2021/01/21 04:13:57;;;;;;;12.40;9.70;;;7.00;1.00;;;;;;5109939;28;21032;-57
2021/01/21 04:16:22;;;;;;;14.27;10.00;;;7.00;1.00;;;;;;5110087;28;20561;-57
2021/01/21 04:18:48;;;;;;;11.07;9.33;;;7.00;1.00;;;;;;5111145;28;20526;-60
2021/01/21 04:21:14;;;;;;;15.77;10.20;;;7.00;1.00;;;;;;5106880;28;20628;-57
2021/01/21 04:23:39;;;;;;;10.77;8.50;;;7.00;1.00;;;;;;5107501;28;20178;-58
2021/01/21 04:26:05;;;;;;;13.67;10.03;;;7.00;1.00;;;;;;5112216;28;20473;-59
2021/01/21 04:28:31;;;;;;;14.40;9.63;;;7.00;1.00;;;;;;5110935;28;20204;-58
2021/01/21 04:30:57;;;;;;;15.70;11.40;;;7.00;1.00;;;;;;5108982;28;20190;-58
2021/01/21 04:33:22;;;;;;;13.90;10.50;;;6.90;1.00;;;;;;5110647;28;20866;-57
2021/01/21 04:35:48;;;;;;;13.37;10.13;;;6.90;1.00;;;;;;5111420;28;20216;-57
2021/01/21 04:38:14;;;;;;;13.43;10.10;;;6.90;1.00;;;;;;5112076;28;20182;-58
2021/01/21 04:40:39;;;;;;;14.53;10.50;;;6.80;1.00;;;;;;5108585;27;20192;-58
2021/01/21 04:43:05;;;;;;;16.20;9.93;;;6.80;1.00;;;;;;5111398;28;20190;-58
2021/01/21 04:45:31;;;;;;;13.20;10.47;;;6.70;1.00;;;;;;5111961;28;20205;-58
2021/01/21 04:47:57;;;;;;;13.87;10.50;;;6.70;1.00;;;;;;5109587;28;20197;-57
2021/01/21 04:50:23;;;;;;;14.73;10.90;;;6.70;1.00;;;;;;5111530;28;20190;-57
2021/01/21 04:52:52;;;;;;;12.30;9.50;;;6.60;1.00;;;;;;5111581;28;20272;-57
2021/01/21 04:55:33;;;;;;;15.97;11.00;;;6.70;1.00;;;;;;5108987;28;20456;-57
2021/01/21 04:58:25;;;;;;;14.47;9.83;;;6.70;1.00;;;;;;5111252;28;20414;-57
2021/01/21 05:00:52;;;;;;;13.87;10.67;;;6.60;1.00;;;;;;5111771;28;20434;-57
2021/01/21 05:03:18;;;;;;;15.70;11.40;;;6.60;1.00;;;;;;5110608;28;20451;-58
2021/01/21 05:05:44;;;;;;;14.80;10.33;;;6.60;1.00;;;;;;5113537;28;20439;-58
2021/01/21 05:08:09;;;;;;;12.10;10.80;;;6.70;1.00;;;;;;5115110;28;20276;-58
2021/01/21 05:10:36;;;;;;;13.40;11.37;;;6.60;1.00;;;;;;5123499;27;20453;-62
2021/01/21 05:13:02;;;;;;;14.97;10.37;;;6.60;1.00;;;;;;5136327;27;20209;-63
2021/01/21 05:15:27;;;;;;;12.87;9.80;;;6.70;1.00;;;;;;5136544;27;20450;-62
2021/01/21 05:17:53;;;;;;;12.53;10.23;;;6.90;1.00;;;;;;5136351;27;20217;-61
2021/01/21 05:20:26;;;;;;;13.90;10.57;;;7.00;1.00;;;;;;5128879;27;20182;-62
2021/01/21 05:22:57;;;;;;;17.37;10.20;;;7.00;1.00;;;;;;5114339;28;20458;-62
2021/01/21 05:25:22;;;;;;;13.30;10.53;;;7.10;1.00;;;;;;5112215;28;20446;-59
2021/01/21 05:27:48;;;;;;;14.43;11.07;;;7.10;1.00;;;;;;5115478;28;20439;-58
2021/01/21 05:30:15;;;;;;;14.03;10.00;;;7.00;1.00;;;;;;5112969;28;20627;-58
2021/01/21 05:32:41;;;;;;;14.03;10.33;;;6.90;1.00;;;;;;5113511;28;20471;-59
2021/01/21 05:35:08;;;;;;;17.50;11.37;;;6.80;1.00;;;;;;5115271;28;20443;-58
2021/01/21 05:37:39;;;;;;;13.10;10.27;;;6.70;1.00;;;;;;5115401;28;20181;-59
2021/01/21 05:40:06;;;;;;;17.23;10.40;;;6.70;1.00;;;;;;5113995;28;20440;-58
2021/01/21 05:42:36;;;;;;;13.87;11.27;;;6.70;1.00;;;;;;5114175;27;20432;-59
2021/01/21 05:45:03;;;;;;;15.03;10.70;;;6.60;1.00;;;;;;5115305;27;20999;-59
2021/01/21 05:47:29;;;;;;;14.63;10.87;;;6.70;1.00;;;;;;5115253;28;20468;-59
2021/01/21 05:49:56;;;;;;;14.80;11.33;;;6.70;1.00;;;;;;5114659;28;20502;-59
2021/01/21 05:52:22;;;;;;;15.37;11.13;;;6.80;1.00;;;;;;5111877;28;20422;-58
2021/01/21 05:54:50;;;;;;;14.47;11.33;;;6.70;1.00;;;;;;5134768;27;21013;-59
2021/01/21 05:57:16;;;;;;;16.03;12.20;;;6.70;1.00;;;;;;5109543;27;20193;-60
2021/01/21 05:59:43;;;;;;;16.63;12.00;;;6.70;1.00;;;;;;5113004;28;20440;-59
2021/01/21 06:02:08;;;;;;;15.53;11.60;;;6.70;1.00;;;;;;5114570;28;20526;-59
2021/01/21 06:04:35;;;;;;;14.53;10.70;;;6.70;1.00;;;;;;5114882;28;20478;-59
2021/01/21 06:07:01;;;;;;;13.63;10.67;;;6.70;1.00;;;;;;5114721;27;20193;-58
2021/01/21 06:09:30;;;;;;;15.97;12.13;;;6.70;1.00;;;;;;5127054;27;20496;-59
2021/01/21 06:12:01;;;;;;;14.63;11.73;;;6.80;1.00;;;;;;5115252;27;20189;-59
2021/01/21 06:14:27;;;;;;;16.10;11.87;;;6.80;1.00;;;;;;5114085;28;20470;-60
2021/01/21 06:16:54;;;;;;;16.00;12.07;;;6.80;1.00;;;;;;5114314;28;20969;-59
2021/01/21 06:19:19;;;;;;;16.73;11.17;;;6.80;1.00;;;;;;5112508;27;20942;-58
2021/01/21 06:21:54;;;;;;;16.17;11.47;;;6.80;1.00;;;;;;5114114;28;20436;-60
2021/01/21 06:24:25;;;;;;;15.27;12.20;;;6.80;1.00;;;;;;5113470;28;20192;-61
2021/01/21 06:26:52;;;;;;;16.23;13.10;;;6.80;1.00;;;;;;5114315;28;20933;-58
2021/01/21 06:29:21;;;;;;;16.70;13.10;;;6.80;1.00;;;;;;5113830;28;20527;-59
2021/01/21 06:31:50;;;;;;;15.37;12.50;;;6.70;1.00;;;;;;5113982;28;20471;-60
2021/01/21 06:34:19;;;;;;;16.77;12.23;;;6.70;1.00;;;;;;5114034;28;20470;-59
2021/01/21 06:36:57;;;;;;;16.13;12.70;;;6.70;1.00;;;;;;5114152;27;20475;-59
2021/01/21 06:39:39;;;;;;;22.00;14.23;;;6.60;1.00;;;;;;5114082;28;20427;-60
2021/01/21 06:42:06;;;;;;;22.00;13.53;;;6.50;1.00;;;;;;5114384;28;20436;-59
2021/01/21 06:44:32;;;;;;;23.03;15.03;;;6.50;1.00;;;;;;5113731;28;20532;-59
2021/01/21 06:46:59;;;;;;;20.03;14.20;;;6.40;1.00;;;;;;5114081;28;20538;-59
2021/01/21 06:49:26;;;;;;;16.00;12.23;;;6.40;1.00;;;;;;5113946;28;20500;-59
2021/01/21 06:51:52;;;;;;;18.60;13.70;;;6.40;1.00;;;;;;5113369;28;20436;-59
2021/01/21 06:54:19;;;;;;;17.93;14.00;;;6.40;1.00;;;;;;5113566;28;20464;-59
2021/01/21 06:56:44;;;;;;;19.00;15.30;;;6.40;1.00;;;;;;5112371;28;20439;-59
2021/01/21 06:59:10;;;;;;;19.33;14.90;;;6.30;1.00;;;;;;5113409;28;20977;-60
2021/01/21 07:01:39;;;;;;;19.97;14.13;;;6.30;1.00;;;;;;5113321;28;20246;-59
2021/01/21 07:04:04;;;;;;;19.57;13.53;;;6.30;1.00;;;;;;5113566;28;20186;-60
2021/01/21 07:06:51;;;;;;;22.50;15.60;;;6.20;1.00;;;;;;5112043;28;20486;-59
2021/01/21 07:09:22;;;;;;;19.50;14.10;;;6.30;1.00;;;;;;5113386;28;20174;-58
2021/01/21 07:11:49;;;;;;;20.47;14.27;;;6.20;1.00;;;;;;5111642;28;20457;-59
2021/01/21 07:14:19;;;;;;;25.67;16.07;;;6.20;1.00;;;;;;5113495;28;20549;-61
2021/01/21 07:16:55;;;;;;;20.03;13.90;;;6.20;1.00;;;;;;5113083;28;20932;-60
2021/01/21 07:19:40;;;;;;;20.77;15.00;;;6.30;1.00;;;;;;5112761;27;20522;-58
2021/01/21 07:22:22;;;;;;;21.83;14.93;;;6.30;1.00;;;;;;5112469;27;20478;-59
2021/01/21 07:24:56;;;;;;;21.10;15.67;;;6.30;1.00;;;;;;5112526;28;20477;-59
2021/01/21 07:27:30;;;;;;;18.47;14.60;;;6.30;1.00;;;;;;5113112;28;20499;-58
2021/01/21 07:30:21;;;;;;;22.53;14.40;;;6.30;1.00;;;;;;5112604;28;20474;-59
2021/01/21 07:32:48;;;;;;;21.77;15.87;;;6.30;1.00;;;;;;5112195;28;20551;-59
2021/01/21 07:35:32;;;;;;;18.53;13.83;;;6.40;1.00;;;;;;5111806;28;20440;-59
2021/01/21 07:37:58;;;;;;;19.47;14.90;;;6.30;1.00;;;;;;5113037;28;20939;-59
2021/01/21 07:40:46;;;;;;;23.13;14.40;;;6.30;1.00;;;;;;5112708;28;20436;-60
2021/01/21 07:43:12;;;;;;;18.00;14.97;;;6.30;1.00;;;;;;5112856;28;20758;-58
2021/01/21 07:45:38;;;;;;;20.60;13.37;;;6.30;1.00;;;;;;5112400;28;20496;-59
2021/01/21 07:48:24;;;;;;;24.03;15.70;;;6.30;1.00;;;;;;5111938;28;20478;-60
2021/01/21 07:50:51;;;;;;;21.47;15.07;;;6.50;1.00;;;;;;5112694;27;20443;-59
2021/01/21 07:53:21;;;;;;;20.80;15.03;;;6.40;1.00;;;;;;5107438;28;21292;-60
2021/01/21 07:55:48;;;;;;;19.33;15.60;;;6.40;1.00;;;;;;5111345;28;20521;-59
2021/01/21 07:58:22;;;;;;;21.00;15.40;;;6.40;1.00;;;;;;5116839;27;20772;-59
2021/01/21 08:00:51;;;;;;;22.83;15.27;;;6.50;1.00;;;;;;5111858;28;20431;-59
2021/01/21 08:03:26;;;;;;;18.90;14.80;;;6.50;1.00;;;;;;5113375;27;20440;-59
2021/01/21 08:06:02;;;;;;;24.17;16.40;;;6.60;1.00;;;;;;5111738;27;20435;-59
2021/01/21 08:08:27;;;;;;;18.40;14.23;;;6.50;1.00;;;;;;5112589;28;20463;-59
2021/01/21 08:11:04;;;;;;;21.60;14.40;;;6.60;1.00;;;;;;5112431;28;20439;-59
2021/01/21 08:13:30;;;;;;;23.27;17.37;;;6.60;1.00;;;;;;5112056;28;20189;-59
2021/01/21 08:15:56;;;;;;;22.67;15.43;;;6.60;1.00;;;;;;5112074;28;20436;-59
2021/01/21 08:18:21;;;;;;;19.60;14.67;;;6.60;1.00;;;;;;5111623;28;20163;-58
2021/01/21 08:20:47;;;;;;;18.83;14.77;;;6.70;1.00;;;;;;5111494;28;20639;-59
2021/01/21 08:23:14;;;;;;;18.73;14.03;;;6.80;1.00;;;;;;5114388;27;20531;-58
2021/01/21 08:25:50;;;;;;;17.93;13.80;;;6.70;1.00;;;;;;5126518;27;20173;-58
2021/01/21 08:28:18;;;;;;;20.10;14.67;;;6.80;1.00;;;;;;5120487;27;20471;-59
2021/01/21 08:30:45;;;;;;;19.83;13.30;;;6.80;1.00;;;;;;5111834;28;20436;-59
2021/01/21 08:33:20;;;;;;;18.40;13.73;;;6.80;1.00;;;;;;5111937;28;20563;-59
2021/01/21 08:36:00;;;;;;;19.50;13.87;;;6.80;1.00;;;;;;5111953;28;20947;-59
2021/01/21 08:38:42;;;;;;;18.90;13.27;;;6.80;1.00;;;;;;5112024;28;20478;-59
2021/01/21 08:41:12;;;;;;;17.50;13.30;;;6.80;1.00;;;;;;5110964;28;20432;-60
2021/01/21 08:43:42;;;;;;;21.70;14.43;;;6.90;1.00;;;;;;5119343;27;20439;-59
2021/01/21 08:46:12;;;;;;;19.80;13.80;;;7.00;1.00;;;;;;5132237;27;20591;-60
2021/01/21 08:48:37;;;;;;;22.90;14.50;;;7.10;1.00;;;;;;5130237;27;20435;-60
2021/01/21 08:51:03;;;;;;;16.27;13.00;;;7.20;1.00;;;;;;5110997;28;20447;-59
2021/01/21 08:53:30;;;;;;;19.57;14.40;;;7.20;1.00;;;;;;5110837;28;20197;-59
2021/01/21 08:55:57;;;;;;;20.20;14.67;;;7.40;1.00;;;;;;5116699;28;20730;-60
2021/01/21 08:58:31;;;;;;;21.67;14.97;;;7.40;1.00;;;;;;5123620;27;20526;-61
2021/01/21 09:01:04;;;;;;;22.57;13.80;;;7.40;1.00;;;;;;5111034;28;20482;-60
2021/01/21 09:03:51;;;;;;;20.43;13.23;;;7.50;1.00;;;;;;5110187;28;20458;-59
2021/01/21 09:06:21;;;;;;;16.37;13.13;;;7.50;1.00;;;;;;5132445;28;20431;-61
2021/01/21 09:08:57;;;;;;;20.20;13.80;;;7.50;1.00;;;;;;5122927;27;20477;-60
2021/01/21 09:11:26;;;;;;;23.77;14.03;;;7.60;1.00;;;;;;5111581;28;20440;-60
2021/01/21 09:13:52;;;;;;;25.90;17.00;;;7.60;1.00;;;;;;5111532;28;20467;-60
2021/01/21 09:16:18;;;;;;;18.43;13.63;;;7.60;1.00;;;;;;5110873;28;20462;-60
2021/01/21 09:18:47;;;;;;;15.90;12.77;;;7.60;1.00;;;;;;5111239;28;20816;-60
2021/01/21 09:21:14;;;;;;;15.13;11.67;;;7.70;1.00;;;;;;5110515;28;20182;-60
2021/01/21 09:23:40;;;;;;;20.40;13.33;;;7.70;1.00;;;;;;5111666;28;20523;-61
2021/01/21 09:26:17;;;;;;;19.50;13.37;;;7.70;1.00;;;;;;5111310;28;20522;-59
2021/01/21 09:28:54;;;;;;;18.77;13.40;;;7.80;1.00;;;;;;5111197;28;20447;-60
2021/01/21 09:31:22;;;;;;;19.10;13.37;;;7.90;1.00;;;;;;5114218;28;20473;-60
2021/01/21 09:33:51;;;;;;;33.97;15.20;;;7.90;1.00;;;;;;5125133;27;20944;-59
2021/01/21 09:36:17;;;;;;;15.10;11.30;;;7.90;1.00;;;;;;5111366;28;20435;-60
2021/01/21 09:38:43;;;;;;;18.63;12.70;;;7.90;1.00;;;;;;5110094;28;20489;-59
2021/01/21 09:41:09;;;;;;;17.73;12.70;;;8.00;1.00;;;;;;5111189;28;20587;-60
2021/01/21 09:43:34;;;;;;;14.77;11.90;;;8.00;1.00;;;;;;5111118;28;20531;-60
2021/01/21 09:46:00;;;;;;;22.40;15.47;;;7.90;1.00;;;;;;5112022;28;20588;-61
2021/01/21 09:48:26;;;;;;;15.30;11.27;;;7.90;1.00;;;;;;5111641;28;20208;-60
2021/01/21 09:50:54;;;;;;;14.97;12.43;;;7.90;1.00;;;;;;5111530;28;20220;-62
2021/01/21 09:53:20;;;;;;;16.50;12.03;;;7.90;1.00;;;;;;5114999;28;20230;-60
2021/01/21 09:55:47;;;;;;;17.87;12.40;;;7.90;1.00;;;;;;5115031;28;20443;-61
2021/01/21 09:58:12;;;;;;;13.93;10.27;;;8.00;1.00;;;;;;5115081;28;20182;-60
2021/01/21 10:00:38;;;;;;;13.90;11.00;;;8.10;1.00;;;;;;5113897;28;20439;-60
2021/01/21 10:03:04;;;;;;;21.67;14.97;;;8.00;1.00;;;;;;5122100;27;20307;-59
2021/01/21 10:05:29;;;;;;;18.27;11.80;;;8.00;1.00;;;;;;5114811;28;20577;-61
2021/01/21 10:07:55;;;;;;;17.67;11.90;;;8.10;1.00;;;;;;5113694;28;20194;-61
2021/01/21 10:10:20;;;;;;;14.10;10.80;;;8.10;1.00;;;;;;5114829;28;20674;-60
2021/01/21 10:12:46;;;;;;;14.57;10.77;;;8.20;1.00;;;;;;5114524;28;20208;-61
2021/01/21 10:15:12;;;;;;;13.63;10.80;;;8.20;1.00;;;;;;5114685;28;20185;-60
2021/01/21 10:17:38;;;;;;;18.40;11.10;;;8.30;1.00;;;;;;5115091;27;20179;-60
2021/01/21 10:20:04;;;;;;;15.07;10.43;;;8.30;1.00;;;;;;5114730;28;20428;-60
2021/01/21 10:22:29;;;;;;;15.57;11.23;;;8.40;1.00;;;;;;5114668;28;20202;-60
2021/01/21 10:24:55;;;;;;;14.03;10.97;;;8.40;1.00;;;;;;5115048;28;20505;-61
2021/01/21 10:27:26;;;;;;;14.30;10.30;;;8.50;1.00;;;;;;5114427;28;20190;-60
2021/01/21 10:29:55;;;;;;;15.37;11.40;;;8.50;1.00;;;;;;5113304;28;20182;-61
2021/01/21 10:32:20;;;;;;;17.70;10.40;;;8.50;1.00;;;;;;5113128;28;21050;-61
2021/01/21 10:34:46;;;;;;;13.83;10.77;;;8.70;1.00;;;;;;5114147;28;20459;-60
2021/01/21 10:37:11;;;;;;;12.00;10.30;;;8.60;1.00;;;;;;5114430;28;20286;-59
2021/01/21 10:39:37;;;;;;;15.40;11.00;;;8.80;1.00;;;;;;5114334;27;20186;-58
2021/01/21 10:42:03;;;;;;;15.80;10.60;;;8.90;1.00;;;;;;5114098;28;20249;-59
2021/01/21 10:44:29;;;;;;;10.90;9.10;;;8.80;1.00;;;;;;5113522;28;20182;-61
2021/01/21 10:46:54;;;;;;;17.00;11.63;;;8.80;1.00;;;;;;5113972;28;20936;-59
2021/01/21 10:49:20;;;;;;;13.90;11.10;;;8.80;1.00;;;;;;5114146;28;20190;-59
2021/01/21 10:51:46;;;;;;;12.80;10.33;;;8.90;1.00;;;;;;5114135;28;20186;-62
2021/01/21 10:54:12;;;;;;;14.97;11.53;;;9.10;1.00;;;;;;5113814;28;20202;-60
2021/01/21 10:56:37;;;;;;;14.47;11.40;;;8.80;1.00;;;;;;5095642;28;20428;-60
2021/01/21 10:59:05;;;;;;;12.20;10.63;;;9.00;1.00;;;;;;5114093;28;20193;-60
2021/01/21 11:01:31;;;;;;;14.47;10.67;;;8.90;1.00;;;;;;5113783;28;20243;-59
2021/01/21 11:03:57;;;;;;;13.60;10.90;;;8.90;1.00;;;;;;5112998;28;20431;-60
2021/01/21 11:06:23;;;;;;;13.53;10.87;;;8.90;1.00;;;;;;5113405;28;20956;-59
2021/01/21 11:08:49;;;;;;;14.30;10.23;;;8.80;1.00;;;;;;5113769;28;20446;-61
2021/01/21 11:11:14;;;;;;;13.13;10.37;;;8.80;1.00;;;;;;5113892;28;20181;-60
2021/01/21 11:13:40;;;;;;;13.10;10.60;;;9.10;1.00;;;;;;5112221;28;20195;-60
2021/01/21 11:16:07;;;;;;;12.77;10.30;;;9.20;1.00;;;;;;5113868;28;20257;-61
2021/01/21 11:18:33;;;;;;;12.03;9.90;;;9.30;1.00;;;;;;5113599;28;20251;-61
2021/01/21 11:20:59;;;;;;;14.20;9.80;;;9.40;1.00;;;;;;5114069;28;20869;-60
2021/01/21 11:23:24;;;;;;;11.67;9.70;;;9.60;1.00;;;;;;5112248;28;20424;-60
2021/01/21 11:25:50;;;;;;;14.77;9.00;;;10.00;1.00;;;;;;5113313;28;20186;-60
2021/01/21 11:28:20;;;;;;;10.70;9.07;;;10.20;1.00;;;;;;5113559;28;20228;-60
2021/01/21 11:30:50;;;;;;;11.40;9.80;;;10.40;1.00;;;;;;5113561;28;20170;-61
2021/01/21 11:33:16;;;;;;;11.77;9.20;;;10.50;1.00;;;;;;5072688;28;20461;-60
2021/01/21 11:35:41;;;;;;;10.90;8.53;;;10.60;1.00;;;;;;5072021;28;20946;-60
2021/01/21 11:38:07;;;;;;;13.97;9.97;;;10.50;1.00;;;;;;5072600;28;20425;-60
2021/01/21 11:40:33;;;;;;;11.47;8.30;;;10.60;1.00;;;;;;5072479;28;20633;-60
2021/01/21 11:42:58;;;;;;;12.37;8.90;;;10.60;1.00;;;;;;5072586;28;20221;-60
2021/01/21 11:45:24;;;;;;;12.60;8.73;;;10.60;1.00;;;;;;5072342;28;20220;-60
2021/01/21 11:47:50;;;;;;;12.40;7.87;;;10.70;1.00;;;;;;5072198;28;20179;-59
2021/01/21 11:50:17;;;;;;;11.70;8.93;;;10.80;1.00;;;;;;5072441;28;20187;-60
2021/01/21 11:52:43;;;;;;;11.87;9.30;;;10.90;1.00;;;;;;5072161;28;20175;-59
2021/01/21 11:55:11;;;;;;;12.67;9.23;;;11.10;1.00;;;;;;5072232;28;20988;-59
2021/01/21 11:57:37;;;;;;;12.30;9.00;;;11.30;1.00;;;;;;5072346;28;20433;-60
2021/01/21 12:00:08;;;;;;;11.83;8.80;;;11.40;1.00;;;;;;5072036;28;20411;-60
2021/01/21 12:02:34;;;;;;;14.60;9.43;;;11.50;1.00;;;;;;5072138;28;20447;-61
2021/01/21 12:04:59;;;;;;;10.60;9.03;;;11.30;1.00;;;;;;5071696;28;20446;-61
2021/01/21 12:07:25;;;;;;;12.37;8.83;;;11.40;1.00;;;;;;5072105;28;20183;-60
2021/01/21 12:09:51;;;;;;;12.70;8.30;;;11.50;1.00;;;;;;5071764;28;20629;-59
2021/01/21 12:12:16;;;;;;;12.10;9.20;;;11.40;1.00;;;;;;5072172;28;20660;-61
2021/01/21 12:14:42;;;;;;;12.60;9.10;;;11.30;1.00;;;;;;5071822;28;20204;-59
2021/01/21 12:17:07;;;;;;;11.57;8.53;;;11.30;1.00;;;;;;5072041;28;20201;-61
2021/01/21 12:19:33;;;;;;;9.97;8.63;;;11.70;1.00;;;;;;5071962;28;20179;-61
2021/01/21 12:21:59;;;;;;;9.00;7.60;;;11.80;1.00;;;;;;5072001;28;20260;-59
2021/01/21 12:24:25;;;;;;;11.63;9.50;;;11.80;1.00;;;;;;5071815;28;20189;-60
2021/01/21 12:26:50;;;;;;;10.57;8.47;;;12.10;1.00;;;;;;5071734;28;20204;-61
2021/01/21 12:29:16;;;;;;;11.57;10.07;;;11.90;1.00;;;;;;5072257;28;20275;-60
2021/01/21 12:31:42;;;;;;;11.73;9.70;;;12.00;1.00;;;;;;5087403;28;20219;-60
2021/01/21 12:34:08;;;;;;;14.97;9.40;;;12.00;1.00;;;;;;5111557;28;20211;-62
2021/01/21 12:36:34;;;;;;;10.23;8.77;;;11.90;1.00;;;;;;5111049;28;20175;-61
2021/01/21 12:39:00;;;;;;;12.80;9.60;;;11.80;1.00;;;;;;5112273;28;20443;-60
2021/01/21 12:41:27;;;;;;;12.20;9.70;;;11.50;1.00;;;;;;5112127;28;20441;-59
2021/01/21 12:43:53;;;;;;;14.97;10.27;;;11.40;1.00;;;;;;5112097;28;20399;-59
2021/01/21 12:46:19;;;;;;;12.90;10.00;;;11.60;1.00;;;;;;5112298;28;20463;-61
2021/01/21 12:48:45;;;;;;;11.43;9.67;;;11.70;1.00;;;;;;5112060;28;20887;-61
2021/01/21 12:51:11;;;;;;;13.90;10.10;;;11.80;1.00;;;;;;5111923;28;20547;-61
2021/01/21 12:53:36;;;;;;;12.20;10.20;;;11.90;1.00;;;;;;5110526;28;20463;-61
2021/01/21 12:56:02;;;;;;;13.20;10.47;;;11.90;1.00;;;;;;5110411;28;20193;-61